createdAt,value
2024-04-09T00:01:04.457Z,100.00
2024-04-09T00:03:32.702Z,100.00
2024-04-09T00:06:00.223Z,100.00
2024-04-09T00:08:30.074Z,100.00
2024-04-09T00:10:57.828Z,100.00
2024-04-09T00:13:26.767Z,100.00
2024-04-09T00:15:53.764Z,100.00
2024-04-09T00:18:20.770Z,100.00
2024-04-09T00:20:54.955Z,100.00
2024-04-09T00:23:24.210Z,100.00
2024-04-09T00:25:51.213Z,100.00
2024-04-09T00:28:18.406Z,100.00
2024-04-09T00:30:48.131Z,100.00
2024-04-09T00:33:16.678Z,100.00
2024-04-09T00:35:44.499Z,100.00
2024-04-09T00:38:15.990Z,100.00
2024-04-09T00:40:43.865Z,100.00
2024-04-09T00:43:10.895Z,100.00
2024-04-09T00:45:38.292Z,100.00
2024-04-09T00:48:05.651Z,100.00
2024-04-09T00:50:34.401Z,100.00
2024-04-09T00:53:01.367Z,100.00
2024-04-09T00:55:28.258Z,100.00
2024-04-09T00:57:55.268Z,100.00
2024-04-09T01:00:23.368Z,100.00
2024-04-09T01:02:50.562Z,100.00
2024-04-09T01:05:18.022Z,100.00
2024-04-09T01:07:45.054Z,100.00
2024-04-09T01:10:12.207Z,100.00
2024-04-09T01:12:39.219Z,100.00
2024-04-09T01:15:06.544Z,100.00
2024-04-09T01:17:34.797Z,100.00
2024-04-09T01:20:02.345Z,100.00
2024-04-09T01:22:32.642Z,100.00
2024-04-09T01:24:59.532Z,100.00
2024-04-09T01:27:26.895Z,100.00
2024-04-09T01:29:55.502Z,100.00
2024-04-09T01:32:22.812Z,100.00
2024-04-09T01:34:49.753Z,100.00
2024-04-09T01:37:19.220Z,100.00
2024-04-09T01:39:50.165Z,100.00
2024-04-09T01:42:17.214Z,100.00
2024-04-09T01:44:44.673Z,100.00
2024-04-09T01:47:12.259Z,100.00
2024-04-09T01:49:39.148Z,100.00
2024-04-09T01:52:06.295Z,100.00
2024-04-09T01:54:33.782Z,100.00
2024-04-09T01:57:00.848Z,100.00
2024-04-09T01:59:27.812Z,100.00
2024-04-09T02:01:54.734Z,100.00
2024-04-09T02:04:21.904Z,100.00
2024-04-09T02:06:50.037Z,100.00
2024-04-09T02:09:16.988Z,100.00
2024-04-09T02:11:43.947Z,100.00
2024-04-09T02:14:11.531Z,100.00
2024-04-09T02:16:38.458Z,100.00
2024-04-09T02:19:05.492Z,100.00
2024-04-09T02:21:32.770Z,100.00
2024-04-09T02:24:01.253Z,100.00
2024-04-09T02:26:30.392Z,100.00
2024-04-09T02:28:58.312Z,100.00
2024-04-09T02:31:25.571Z,100.00
2024-04-09T02:33:52.691Z,100.00
2024-04-09T02:36:19.794Z,100.00
2024-04-09T02:38:46.767Z,100.00
2024-04-09T02:41:18.481Z,100.00
2024-04-09T02:43:45.590Z,100.00
2024-04-09T02:46:12.509Z,100.00
2024-04-09T02:48:39.565Z,100.00
2024-04-09T02:51:06.851Z,100.00
2024-04-09T02:53:33.900Z,100.00
2024-04-09T02:56:01.578Z,100.00
2024-04-09T02:58:28.567Z,100.00
2024-04-09T03:00:59.317Z,100.00
2024-04-09T03:03:26.410Z,100.00
2024-04-09T03:05:53.502Z,100.00
2024-04-09T03:08:21.618Z,100.00
2024-04-09T03:10:48.680Z,100.00
2024-04-09T03:13:15.686Z,100.00
2024-04-09T03:15:43.049Z,100.00
2024-04-09T03:18:10.307Z,100.00
2024-04-09T03:20:37.345Z,100.00
2024-04-09T03:23:04.499Z,100.00
2024-04-09T03:25:31.512Z,100.00
2024-04-09T03:27:58.431Z,100.00
2024-04-09T03:30:25.433Z,100.00
2024-04-09T03:32:53.717Z,100.00
2024-04-09T03:35:20.708Z,100.00
2024-04-09T03:37:48.587Z,100.00
2024-04-09T03:40:15.681Z,100.00
2024-04-09T03:42:42.714Z,100.00
2024-04-09T03:45:12.160Z,100.00
2024-04-09T03:47:39.226Z,100.00
2024-04-09T03:50:06.948Z,100.00
2024-04-09T03:52:33.862Z,100.00
2024-04-09T03:55:00.973Z,100.00
2024-04-09T03:57:28.068Z,100.00
2024-04-09T03:59:55.039Z,100.00
2024-04-09T04:02:22.014Z,100.00
2024-04-09T04:04:49.057Z,100.00
2024-04-09T04:07:17.486Z,100.00
2024-04-09T04:09:44.483Z,100.00
2024-04-09T04:12:11.487Z,100.00
2024-04-09T04:14:38.390Z,100.00
2024-04-09T04:17:07.134Z,100.00
2024-04-09T04:19:34.202Z,100.00
2024-04-09T04:22:01.231Z,100.00
2024-04-09T04:24:30.521Z,100.00
2024-04-09T04:26:58.164Z,100.00
2024-04-09T04:29:25.279Z,100.00
2024-04-09T04:31:53.383Z,100.00
2024-04-09T04:34:20.383Z,100.00
2024-04-09T04:36:47.462Z,100.00
2024-04-09T04:39:14.537Z,100.00
2024-04-09T04:41:42.114Z,100.00
2024-04-09T04:44:09.028Z,100.00
2024-04-09T04:46:35.932Z,100.00
2024-04-09T04:49:02.969Z,100.00
2024-04-09T04:51:30.067Z,100.00
2024-04-09T04:53:57.234Z,100.00
2024-04-09T04:56:24.174Z,100.00
2024-04-09T04:58:51.565Z,100.00
2024-04-09T05:01:18.535Z,100.00
2024-04-09T05:03:45.550Z,100.00
2024-04-09T05:06:13.563Z,100.00
2024-04-09T05:08:40.508Z,100.00
2024-04-09T05:11:11.765Z,100.00
2024-04-09T05:13:38.725Z,100.00
2024-04-09T05:16:05.780Z,100.00
2024-04-09T05:18:32.905Z,100.00
2024-04-09T05:21:00.069Z,100.00
2024-04-09T05:23:27.310Z,100.00
2024-04-09T05:25:54.252Z,100.00
2024-04-09T05:28:21.164Z,100.00
2024-04-09T05:30:48.147Z,100.00
2024-04-09T05:33:15.571Z,100.00
2024-04-09T05:35:42.499Z,100.00
2024-04-09T05:38:09.402Z,100.00
2024-04-09T05:40:36.918Z,100.00
2024-04-09T05:43:04.487Z,100.00
2024-04-09T05:45:31.430Z,100.00
2024-04-09T05:47:58.561Z,100.00
2024-04-09T05:50:25.554Z,100.00
2024-04-09T05:52:52.472Z,100.00
2024-04-09T05:55:19.459Z,100.00
2024-04-09T05:57:46.393Z,100.00
2024-04-09T06:00:17.079Z,100.00
2024-04-09T06:02:48.793Z,100.00
2024-04-09T06:05:19.125Z,100.00
2024-04-09T06:07:46.433Z,100.00
2024-04-09T06:10:16.187Z,100.00
2024-04-09T06:12:43.300Z,100.00
2024-04-09T06:15:10.297Z,100.00
2024-04-09T06:17:37.312Z,100.00
2024-04-09T06:20:06.588Z,100.00
2024-04-09T06:22:34.072Z,100.00
2024-04-09T06:25:01.233Z,100.00
2024-04-09T06:27:28.403Z,100.00
2024-04-09T06:29:55.647Z,100.00
2024-04-09T06:32:22.914Z,100.00
2024-04-09T06:34:49.960Z,100.00
2024-04-09T06:37:17.356Z,100.00
2024-04-09T06:39:44.544Z,100.00
2024-04-09T06:42:11.753Z,100.00
2024-04-09T06:44:38.759Z,100.00
2024-04-09T06:47:06.727Z,100.00
2024-04-09T06:49:34.290Z,100.00
2024-04-09T06:52:01.441Z,100.00
2024-04-09T06:54:28.752Z,100.00
2024-04-09T06:56:56.196Z,100.00
2024-04-09T06:59:23.485Z,100.00
2024-04-09T07:01:50.482Z,100.00
2024-04-09T07:04:18.277Z,100.00
2024-04-09T07:06:45.748Z,100.00
2024-04-09T07:09:18.637Z,100.00
2024-04-09T07:11:49.018Z,100.00
2024-04-09T07:14:16.373Z,100.00
2024-04-09T07:16:47.869Z,100.00
2024-04-09T07:19:15.008Z,100.00
2024-04-09T07:21:42.134Z,100.00
2024-04-09T07:24:11.172Z,100.00
2024-04-09T07:26:38.359Z,100.00
2024-04-09T07:29:05.432Z,100.00
2024-04-09T07:31:32.481Z,100.00
2024-04-09T07:34:00.087Z,100.00
2024-04-09T07:36:27.110Z,100.00
2024-04-09T07:38:54.280Z,100.00
2024-04-09T07:41:24.996Z,100.00
2024-04-09T07:43:52.300Z,100.00
2024-04-09T07:46:20.356Z,100.00
2024-04-09T07:48:47.452Z,100.00
2024-04-09T07:51:14.694Z,100.00
2024-04-09T07:53:42.395Z,100.00
2024-04-09T07:56:14.265Z,100.00
2024-04-09T07:58:41.434Z,100.00
2024-04-09T08:01:08.746Z,100.00
2024-04-09T08:03:36.139Z,100.00
2024-04-09T08:06:05.482Z,100.00
2024-04-09T08:08:36.931Z,100.00
2024-04-09T08:11:10.390Z,100.00
2024-04-09T08:13:37.872Z,100.00
2024-04-09T08:16:05.864Z,100.00
2024-04-09T08:18:33.322Z,100.00
2024-04-09T08:21:02.134Z,100.00
2024-04-09T08:23:29.356Z,100.00
2024-04-09T08:25:56.274Z,100.00
2024-04-09T08:28:23.228Z,100.00
2024-04-09T08:30:50.517Z,100.00
2024-04-09T08:33:19.070Z,100.00
2024-04-09T08:35:47.096Z,100.00
2024-04-09T08:38:14.470Z,100.00
2024-04-09T08:40:41.739Z,100.00
2024-04-09T08:43:09.470Z,100.00
2024-04-09T08:45:36.962Z,100.00
2024-04-09T08:48:05.080Z,100.00
2024-04-09T08:50:33.506Z,100.00
2024-04-09T08:53:00.751Z,100.00
2024-04-09T08:55:27.854Z,100.00
2024-04-09T08:57:55.227Z,100.00
2024-04-09T09:00:22.515Z,100.00
2024-04-09T09:02:49.588Z,100.00
2024-04-09T09:05:20.666Z,100.00
2024-04-09T09:07:48.021Z,100.00
2024-04-09T09:10:14.930Z,100.00
2024-04-09T09:12:41.928Z,100.00
2024-04-09T09:15:10.283Z,100.00
2024-04-09T09:17:37.415Z,100.00
2024-04-09T09:20:11.277Z,100.00
2024-04-09T09:22:45.277Z,100.00
2024-04-09T09:25:25.431Z,100.00
2024-04-09T09:28:08.591Z,100.00
2024-04-09T09:30:42.942Z,100.00
2024-04-09T09:33:22.821Z,100.00
2024-04-09T09:35:50.915Z,100.00
2024-04-09T09:38:18.719Z,100.00
2024-04-09T09:40:47.886Z,100.00
2024-04-09T09:43:16.980Z,100.00
2024-04-09T09:45:46.473Z,100.00
2024-04-09T09:48:13.961Z,100.00
2024-04-09T09:50:43.837Z,100.00
2024-04-09T09:53:11.187Z,100.00
2024-04-09T09:55:38.346Z,100.00
2024-04-09T09:58:05.472Z,97.86
2024-04-09T10:00:33.530Z,100.00
2024-04-09T10:03:00.959Z,100.00
2024-04-09T10:05:32.910Z,96.33
2024-04-09T10:08:00.152Z,94.73
2024-04-09T10:10:27.597Z,97.60
2024-04-09T10:13:00.379Z,95.11
2024-04-09T10:15:28.932Z,96.04
2024-04-09T10:18:06.516Z,96.38
2024-04-09T10:20:37.676Z,92.09
2024-04-09T10:23:08.274Z,87.51
2024-04-09T10:25:37.813Z,93.16
2024-04-09T10:28:08.371Z,93.44
2024-04-09T10:30:35.958Z,95.08
2024-04-09T10:33:05.065Z,99.23
2024-04-09T10:35:32.770Z,92.40
2024-04-09T10:38:06.361Z,93.32
2024-04-09T10:40:36.763Z,91.12
2024-04-09T10:43:07.478Z,90.08
2024-04-09T10:45:41.714Z,88.09
2024-04-09T10:48:14.817Z,87.43
2024-04-09T10:50:44.390Z,93.63
2024-04-09T10:53:11.306Z,96.66
2024-04-09T10:55:38.231Z,91.64
2024-04-09T10:58:05.170Z,95.57
2024-04-09T11:00:32.230Z,90.99
2024-04-09T11:02:59.707Z,89.97
2024-04-09T11:05:26.712Z,93.76
2024-04-09T11:07:53.737Z,93.96
2024-04-09T11:10:24.242Z,92.72
2024-04-09T11:12:54.246Z,96.43
2024-04-09T11:15:21.815Z,91.07
2024-04-09T11:17:49.142Z,100.00
2024-04-09T11:20:16.890Z,93.87
2024-04-09T11:22:44.276Z,97.50
2024-04-09T11:25:14.943Z,95.98
2024-04-09T11:27:42.379Z,96.35
2024-04-09T11:30:09.991Z,97.97
2024-04-09T11:32:41.095Z,100.00
2024-04-09T11:35:22.330Z,92.90
2024-04-09T11:37:53.509Z,98.73
2024-04-09T11:40:26.898Z,98.65
2024-04-09T11:42:54.382Z,96.96
2024-04-09T11:45:25.113Z,95.61
2024-04-09T11:47:52.772Z,97.58
2024-04-09T11:50:19.893Z,91.07
2024-04-09T11:52:46.828Z,93.12
2024-04-09T11:55:16.726Z,93.64
2024-04-09T11:57:47.372Z,83.45
2024-04-09T12:00:15.322Z,92.09
2024-04-09T12:02:45.942Z,98.55
2024-04-09T12:05:14.943Z,93.32
2024-04-09T12:07:45.356Z,91.26
2024-04-09T12:10:12.522Z,91.94
2024-04-09T12:12:42.773Z,93.03
2024-04-09T12:15:13.679Z,97.37
2024-04-09T12:19:44.687Z,93.33
2024-04-09T12:22:15.859Z,92.64
2024-04-09T12:24:43.636Z,90.06
2024-04-09T12:27:11.077Z,90.44
2024-04-09T12:29:38.476Z,90.31
2024-04-09T12:32:07.381Z,90.13
2024-04-09T12:34:34.799Z,98.03
2024-04-09T12:37:02.233Z,99.49
2024-04-09T12:39:32.079Z,94.99
2024-04-09T12:42:02.414Z,94.76
2024-04-09T12:44:30.638Z,92.39
2024-04-09T12:46:57.981Z,93.80
2024-04-09T12:49:34.976Z,94.36
2024-04-09T12:52:10.670Z,91.99
2024-04-09T12:54:38.030Z,93.65
2024-04-09T12:57:06.043Z,93.96
2024-04-09T12:59:47.921Z,94.68
2024-04-09T13:02:22.907Z,89.78
2024-04-09T13:04:50.976Z,98.22
2024-04-09T13:07:19.122Z,95.59
2024-04-09T13:09:46.519Z,89.47
2024-04-09T13:12:14.308Z,93.70
2024-04-09T13:16:41.638Z,95.45
2024-04-09T13:17:29.554Z,98.86
2024-04-09T13:19:56.910Z,99.23
2024-04-09T13:22:24.996Z,99.22
2024-04-09T13:24:52.405Z,96.88
2024-04-09T13:27:19.688Z,99.78
2024-04-09T13:29:47.044Z,96.13
2024-04-09T13:32:16.802Z,98.65
2024-04-09T13:34:44.227Z,96.85
2024-04-09T13:37:11.632Z,100.00
2024-04-09T13:39:38.885Z,100.00
2024-04-09T13:42:06.373Z,100.00
2024-04-09T13:44:33.694Z,100.00
2024-04-09T13:47:01.272Z,100.00
2024-04-09T13:49:28.707Z,96.55
2024-04-09T13:51:56.103Z,100.00
2024-04-09T13:54:23.781Z,100.00
2024-04-09T13:56:53.101Z,100.00
2024-04-09T14:01:48.462Z,100.00
2024-04-09T14:04:16.836Z,97.75
2024-04-09T14:06:44.296Z,100.00
2024-04-09T14:09:11.652Z,98.62
2024-04-09T14:11:38.988Z,100.00
2024-04-09T14:14:08.540Z,99.85
2024-04-09T14:16:35.922Z,97.48
2024-04-09T14:19:05.899Z,100.00
2024-04-09T14:21:33.321Z,100.00
2024-04-09T14:24:00.772Z,100.00
2024-04-09T14:26:28.320Z,100.00
2024-04-09T14:28:56.196Z,100.00
2024-04-09T14:31:23.530Z,100.00
2024-04-09T14:33:52.509Z,100.00
2024-04-09T14:36:20.163Z,100.00
2024-04-09T14:38:47.424Z,100.00
2024-04-09T14:41:18.094Z,100.00
2024-04-09T14:46:21.413Z,100.00
2024-04-09T14:48:52.222Z,100.00
2024-04-09T14:51:20.899Z,100.00
2024-04-09T14:53:48.247Z,100.00
2024-04-09T14:56:15.608Z,100.00
2024-04-09T14:58:43.041Z,100.00
2024-04-09T15:01:11.616Z,100.00
2024-04-09T15:03:39.191Z,100.00
2024-04-09T15:06:06.866Z,100.00
2024-04-09T15:08:34.152Z,100.00
2024-04-09T15:11:04.426Z,100.00
2024-04-09T15:13:33.240Z,100.00
2024-04-09T15:16:01.125Z,100.00
2024-04-09T15:18:28.807Z,100.00
2024-04-09T15:20:56.291Z,100.00
2024-04-09T15:23:24.548Z,100.00
2024-04-09T15:25:55.301Z,100.00
2024-04-09T15:28:22.939Z,100.00
2024-04-09T15:30:54.047Z,100.00
2024-04-09T15:33:21.945Z,100.00
2024-04-09T15:35:56.124Z,100.00
2024-04-09T15:38:23.752Z,100.00
2024-04-09T15:40:53.848Z,100.00
2024-04-09T15:43:21.655Z,100.00
2024-04-09T15:45:49.198Z,100.00
2024-04-09T15:48:17.076Z,100.00
2024-04-09T15:50:44.555Z,100.00
2024-04-09T15:53:12.240Z,100.00
2024-04-09T15:55:40.313Z,100.00
2024-04-09T15:58:07.810Z,100.00
2024-04-09T16:00:36.065Z,100.00
2024-04-09T16:03:04.334Z,100.00
2024-04-09T16:05:32.650Z,100.00
2024-04-09T16:08:00.401Z,100.00
2024-04-09T16:10:27.869Z,100.00
2024-04-09T16:12:55.382Z,100.00
2024-04-09T16:15:23.307Z,100.00
2024-04-09T16:17:51.621Z,100.00
2024-04-09T16:20:19.338Z,100.00
2024-04-09T16:22:46.694Z,100.00
2024-04-09T16:25:15.425Z,100.00
2024-04-09T16:27:42.833Z,100.00
2024-04-09T16:30:14.972Z,100.00
2024-04-09T16:32:43.299Z,100.00
2024-04-09T16:35:12.114Z,100.00
2024-04-09T16:39:56.827Z,100.00
2024-04-09T16:42:24.472Z,100.00
2024-04-09T16:44:54.611Z,100.00
2024-04-09T16:47:22.321Z,100.00
2024-04-09T16:49:55.679Z,100.00
2024-04-09T16:52:23.410Z,100.00
2024-04-09T16:54:56.081Z,100.00
2024-04-09T16:57:32.985Z,100.00
2024-04-09T17:00:09.321Z,100.00
2024-04-09T17:02:37.263Z,100.00
2024-04-09T17:05:09.793Z,100.00
2024-04-09T17:07:37.656Z,100.00
2024-04-09T17:10:12.314Z,100.00
2024-04-09T17:12:42.310Z,100.00
2024-04-09T17:15:12.993Z,100.00
2024-04-09T17:17:40.834Z,100.00
2024-04-09T17:20:12.346Z,100.00
2024-04-09T17:22:39.986Z,100.00
2024-04-09T17:25:12.721Z,100.00
2024-04-09T17:27:40.927Z,100.00
2024-04-09T17:30:12.867Z,100.00
2024-04-09T17:32:40.907Z,100.00
2024-04-09T17:35:12.496Z,100.00
2024-04-09T17:37:40.606Z,100.00
2024-04-09T17:40:14.011Z,100.00
2024-04-09T17:42:41.619Z,100.00
2024-04-09T17:45:12.845Z,100.00
2024-04-09T17:47:40.600Z,100.00
2024-04-09T17:50:11.064Z,100.00
2024-04-09T17:52:39.206Z,100.00
2024-04-09T17:55:09.750Z,100.00
2024-04-09T17:57:39.984Z,100.00
2024-04-09T18:00:14.320Z,100.00
2024-04-09T18:02:43.275Z,100.00
2024-04-09T18:05:16.727Z,100.00
2024-04-09T18:07:44.564Z,100.00
2024-04-09T18:10:15.290Z,100.00
2024-04-09T18:12:45.894Z,100.00
2024-04-09T18:15:16.131Z,100.00
2024-04-09T18:17:44.052Z,100.00
2024-04-09T18:20:15.522Z,100.00
2024-04-09T18:22:43.245Z,100.00
2024-04-09T18:25:13.575Z,100.00
2024-04-09T18:27:41.210Z,100.00
2024-04-09T18:30:14.638Z,100.00
2024-04-09T18:32:42.540Z,100.00
2024-04-09T18:35:13.015Z,100.00
2024-04-09T18:37:40.641Z,100.00
2024-04-09T18:40:11.607Z,100.00
2024-04-09T18:42:39.263Z,100.00
2024-04-09T18:45:11.996Z,100.00
2024-04-09T18:47:42.609Z,100.00
2024-04-09T18:50:13.113Z,100.00
2024-04-09T18:52:40.787Z,100.00
2024-04-09T18:55:11.033Z,100.00
2024-04-09T18:57:38.689Z,100.00
2024-04-09T19:00:09.880Z,100.00
2024-04-09T19:02:37.517Z,100.00
2024-04-09T19:05:10.557Z,100.00
2024-04-09T19:07:38.430Z,100.00
2024-04-09T19:10:09.386Z,100.00
2024-04-09T19:12:37.071Z,100.00
2024-04-09T19:15:07.955Z,100.00
2024-04-09T19:17:35.693Z,100.00
2024-04-09T19:20:06.498Z,100.00
2024-04-09T19:22:37.115Z,100.00
2024-04-09T19:25:07.839Z,100.00
2024-04-09T19:27:35.557Z,100.00
2024-04-09T19:30:06.640Z,100.00
2024-04-09T19:32:34.665Z,100.00
2024-04-09T19:35:08.199Z,100.00
2024-04-09T19:37:38.473Z,100.00
2024-04-09T19:40:10.342Z,100.00
2024-04-09T19:42:38.404Z,100.00
2024-04-09T19:45:10.174Z,100.00
2024-04-09T19:47:38.118Z,100.00
2024-04-09T19:50:09.332Z,100.00
2024-04-09T19:52:39.753Z,100.00
2024-04-09T19:55:10.297Z,100.00
2024-04-09T19:57:38.048Z,100.00
2024-04-09T20:00:11.305Z,100.00
2024-04-09T20:02:42.454Z,100.00
2024-04-09T20:05:12.941Z,100.00
2024-04-09T20:07:43.512Z,100.00
2024-04-09T20:10:13.781Z,100.00
2024-04-09T20:12:41.445Z,100.00
2024-04-09T20:15:11.629Z,100.00
2024-04-09T20:17:39.455Z,100.00
2024-04-09T20:20:11.759Z,100.00
2024-04-09T20:22:39.530Z,100.00
2024-04-09T20:25:12.445Z,100.00
2024-04-09T20:27:41.125Z,100.00
2024-04-09T20:30:13.030Z,100.00
2024-04-09T20:32:40.860Z,100.00
2024-04-09T20:35:11.117Z,100.00
2024-04-09T20:37:38.780Z,100.00
2024-04-09T20:40:13.844Z,100.00
2024-04-09T20:42:42.118Z,100.00
2024-04-09T20:45:12.342Z,100.00
2024-04-09T20:47:41.128Z,100.00
2024-04-09T20:50:11.508Z,100.00
2024-04-09T20:52:39.440Z,100.00
2024-04-09T20:55:12.390Z,100.00
2024-04-09T20:57:39.968Z,100.00
2024-04-09T21:00:11.787Z,100.00
2024-04-09T21:02:39.506Z,100.00
2024-04-09T21:05:09.866Z,100.00
2024-04-09T21:07:37.535Z,100.00
2024-04-09T21:10:08.534Z,100.00
2024-04-09T21:12:40.086Z,100.00
2024-04-09T21:15:11.730Z,100.00
2024-04-09T21:17:39.680Z,100.00
2024-04-09T21:20:10.438Z,100.00
2024-04-09T21:22:38.204Z,100.00
2024-04-09T21:25:08.945Z,100.00
2024-04-09T21:27:39.114Z,100.00
2024-04-09T21:30:13.326Z,100.00
2024-04-09T21:32:41.377Z,100.00
2024-04-09T21:35:13.214Z,100.00
2024-04-09T21:37:42.368Z,100.00
2024-04-09T21:40:13.615Z,100.00
2024-04-09T21:42:44.274Z,100.00
2024-04-09T21:45:14.473Z,100.00
2024-04-09T21:47:42.342Z,100.00
2024-04-09T21:50:13.447Z,100.00
2024-04-09T21:52:41.099Z,100.00
2024-04-09T21:55:11.598Z,100.00
2024-04-09T21:57:39.266Z,100.00
2024-04-09T22:00:21.855Z,100.00
2024-04-09T22:02:49.887Z,100.00
2024-04-09T22:05:20.845Z,100.00
2024-04-09T22:07:48.663Z,100.00
2024-04-09T22:10:18.821Z,100.00
2024-04-09T22:12:46.868Z,100.00
2024-04-09T22:15:19.563Z,100.00
2024-04-09T22:17:47.408Z,100.00
2024-04-09T22:20:17.984Z,100.00
2024-04-09T22:22:45.686Z,100.00
2024-04-09T22:25:15.742Z,100.00
2024-04-09T22:27:45.188Z,100.00
2024-04-09T22:30:15.431Z,100.00
2024-04-09T22:32:50.484Z,100.00
2024-04-09T22:35:21.586Z,100.00
2024-04-09T22:37:52.464Z,100.00
2024-04-09T22:40:22.837Z,100.00
2024-04-09T22:42:50.907Z,100.00
2024-04-09T22:45:21.087Z,100.00
2024-04-09T22:47:51.426Z,100.00
2024-04-09T22:50:22.752Z,100.00
2024-04-09T22:52:50.477Z,100.00
2024-04-09T22:55:20.666Z,100.00
2024-04-09T22:57:48.237Z,100.00
2024-04-09T23:00:18.635Z,100.00
2024-04-09T23:02:46.446Z,100.00
2024-04-09T23:05:19.530Z,100.00
2024-04-09T23:07:47.352Z,100.00
2024-04-09T23:10:18.345Z,100.00
2024-04-09T23:12:47.346Z,100.00
2024-04-09T23:15:18.040Z,100.00
2024-04-09T23:17:46.548Z,100.00
2024-04-09T23:20:19.572Z,100.00
2024-04-09T23:22:48.924Z,100.00
2024-04-09T23:25:19.244Z,100.00
2024-04-09T23:27:46.944Z,100.00
2024-04-09T23:30:17.552Z,100.00
2024-04-09T23:32:45.472Z,100.00
2024-04-09T23:35:15.894Z,100.00
2024-04-09T23:37:46.087Z,100.00
2024-04-09T23:40:17.592Z,100.00
2024-04-09T23:42:45.201Z,100.00
2024-04-09T23:45:15.352Z,100.00
2024-04-09T23:47:43.110Z,100.00
2024-04-09T23:50:13.479Z,100.00
2024-04-09T23:52:41.439Z,100.00
2024-04-09T23:55:14.320Z,100.00
2024-04-09T23:57:41.951Z,100.00
